createdAt,value
2018-12-29T00:01:16.038Z,4.40
2018-12-29T00:03:44.913Z,4.40
2018-12-29T00:06:13.711Z,4.40
2018-12-29T00:08:42.967Z,4.40
2018-12-29T00:11:11.835Z,4.40
2018-12-29T00:13:40.623Z,4.40
2018-12-29T00:16:09.485Z,4.40
2018-12-29T00:18:38.568Z,4.40
2018-12-29T00:21:07.454Z,4.40
2018-12-29T00:23:36.280Z,4.40
2018-12-29T00:26:05.215Z,4.40
2018-12-29T00:28:34.207Z,4.30
2018-12-29T00:31:03.074Z,4.40
2018-12-29T00:33:31.969Z,4.40
2018-12-29T00:36:00.804Z,4.40
2018-12-29T00:38:29.716Z,4.40
2018-12-29T00:40:58.879Z,4.40
2018-12-29T00:43:28.049Z,4.40
2018-12-29T00:45:56.864Z,4.40
2018-12-29T00:48:26.034Z,4.40
2018-12-29T00:50:54.893Z,4.40
2018-12-29T00:53:23.694Z,4.30
2018-12-29T00:55:52.529Z,4.30
2018-12-29T00:58:21.350Z,4.30
2018-12-29T01:00:50.179Z,4.30
2018-12-29T01:03:19.027Z,4.20
2018-12-29T01:05:47.862Z,4.30
2018-12-29T01:08:16.772Z,4.20
2018-12-29T01:11:04.892Z,4.30
2018-12-29T01:13:34.038Z,4.30
2018-12-29T01:16:02.939Z,4.30
2018-12-29T01:18:31.774Z,4.20
2018-12-29T01:21:00.613Z,4.20
2018-12-29T01:23:29.687Z,4.20
2018-12-29T01:25:58.497Z,4.10
2018-12-29T01:28:27.332Z,4.10
2018-12-29T01:30:56.140Z,4.10
2018-12-29T01:33:24.948Z,4.10
2018-12-29T01:35:53.910Z,4.10
2018-12-29T01:38:22.753Z,4.10
2018-12-29T01:40:51.620Z,4.20
2018-12-29T01:43:20.456Z,4.20
2018-12-29T01:45:49.279Z,4.20
2018-12-29T01:48:18.405Z,4.20
2018-12-29T01:50:47.240Z,4.30
2018-12-29T01:53:16.065Z,4.20
2018-12-29T01:55:44.864Z,4.20
2018-12-29T01:58:13.738Z,4.30
2018-12-29T02:00:42.705Z,4.30
2018-12-29T02:03:11.535Z,4.30
2018-12-29T02:05:40.397Z,4.30
2018-12-29T02:08:09.195Z,4.30
2018-12-29T02:10:38.011Z,4.30
2018-12-29T02:13:07.523Z,4.20
2018-12-29T02:15:36.324Z,4.20
2018-12-29T02:18:05.159Z,4.20
2018-12-29T02:20:33.987Z,4.20
2018-12-29T02:23:02.777Z,4.20
2018-12-29T02:25:31.667Z,4.10
2018-12-29T02:28:00.539Z,4.10
2018-12-29T02:30:29.376Z,4.10
2018-12-29T02:32:58.197Z,4.10
2018-12-29T02:35:27.052Z,4.20
2018-12-29T02:37:55.891Z,4.20
2018-12-29T02:40:24.730Z,4.20
2018-12-29T02:42:53.606Z,4.30
2018-12-29T02:45:22.489Z,4.30
2018-12-29T02:47:51.351Z,4.20
2018-12-29T02:50:20.448Z,4.30
2018-12-29T02:52:49.263Z,4.30
2018-12-29T02:55:18.148Z,4.20
2018-12-29T02:57:46.959Z,4.20
2018-12-29T03:00:15.783Z,4.30
2018-12-29T03:02:44.644Z,4.30
2018-12-29T03:05:13.553Z,4.20
2018-12-29T03:07:42.787Z,4.30
2018-12-29T03:10:11.627Z,4.30
2018-12-29T03:12:40.472Z,4.30
2018-12-29T03:15:09.287Z,4.30
2018-12-29T03:17:38.078Z,4.20
2018-12-29T03:20:07.412Z,4.20
2018-12-29T03:22:36.239Z,4.30
2018-12-29T03:25:05.257Z,4.30
2018-12-29T03:27:34.061Z,4.30
2018-12-29T03:30:03.072Z,4.30
2018-12-29T03:32:31.850Z,4.30
2018-12-29T03:35:00.684Z,4.30
2018-12-29T03:37:29.573Z,4.20
2018-12-29T03:39:58.421Z,4.20
2018-12-29T03:42:27.219Z,4.20
2018-12-29T03:44:56.073Z,4.20
2018-12-29T03:47:24.887Z,4.20
2018-12-29T03:49:53.727Z,4.20
2018-12-29T03:52:22.691Z,4.20
2018-12-29T03:54:51.504Z,4.20
2018-12-29T03:57:20.462Z,4.20
2018-12-29T03:59:49.295Z,4.10
2018-12-29T04:02:18.106Z,4.10
2018-12-29T04:04:46.917Z,4.10
2018-12-29T04:07:15.784Z,4.10
2018-12-29T04:09:44.967Z,4.20
2018-12-29T04:12:22.522Z,4.20
2018-12-29T04:14:51.460Z,4.20
2018-12-29T04:17:20.332Z,4.20
2018-12-29T04:19:49.138Z,4.20
2018-12-29T04:22:18.181Z,4.20
2018-12-29T04:24:47.053Z,4.10
2018-12-29T04:27:15.858Z,4.10
2018-12-29T04:29:44.689Z,4.10
2018-12-29T04:32:13.483Z,4.10
2018-12-29T04:34:42.307Z,4.10
2018-12-29T04:37:11.401Z,4.20
2018-12-29T04:39:40.455Z,4.20
2018-12-29T04:42:09.311Z,4.30
2018-12-29T04:44:38.099Z,4.30
2018-12-29T04:47:06.917Z,4.30
2018-12-29T04:49:35.754Z,4.30
2018-12-29T04:52:04.694Z,4.20
2018-12-29T04:54:33.526Z,4.20
2018-12-29T04:57:02.727Z,4.10
2018-12-29T04:59:31.969Z,4.10
2018-12-29T05:02:00.816Z,4.10
2018-12-29T05:04:30.061Z,4.10
2018-12-29T05:06:58.902Z,4.00
2018-12-29T05:09:27.725Z,4.00
2018-12-29T05:11:56.565Z,4.10
2018-12-29T05:14:25.425Z,4.20
2018-12-29T05:16:54.262Z,4.20
2018-12-29T05:19:23.068Z,4.10
2018-12-29T05:21:52.079Z,4.00
2018-12-29T05:24:20.897Z,4.10
2018-12-29T05:26:49.738Z,4.10
2018-12-29T05:29:18.530Z,4.10
2018-12-29T05:31:47.331Z,4.00
2018-12-29T05:34:16.371Z,4.10
2018-12-29T05:36:45.198Z,4.00
2018-12-29T05:39:15.085Z,4.10
2018-12-29T05:41:44.270Z,4.20
2018-12-29T05:44:13.095Z,4.20
2018-12-29T05:46:41.977Z,4.10
2018-12-29T05:49:10.815Z,4.10
2018-12-29T05:51:39.654Z,4.00
2018-12-29T05:54:08.459Z,4.10
2018-12-29T05:56:37.374Z,4.10
2018-12-29T05:59:06.188Z,4.10
2018-12-29T06:01:35.110Z,4.10
2018-12-29T06:04:04.081Z,4.10
2018-12-29T06:06:32.909Z,4.20
2018-12-29T06:09:03.949Z,4.20
2018-12-29T06:11:33.237Z,4.10
2018-12-29T06:14:02.040Z,4.10
2018-12-29T06:16:30.840Z,4.20
2018-12-29T06:18:59.861Z,4.20
2018-12-29T06:21:28.655Z,4.20
2018-12-29T06:23:57.539Z,4.20
2018-12-29T06:26:26.455Z,4.30
2018-12-29T06:28:55.275Z,4.30
2018-12-29T06:31:24.100Z,4.30
2018-12-29T06:33:52.901Z,4.30
2018-12-29T06:36:21.750Z,4.40
2018-12-29T06:38:50.802Z,4.40
2018-12-29T06:41:19.846Z,4.40
2018-12-29T06:43:48.675Z,4.40
2018-12-29T06:46:17.790Z,4.30
2018-12-29T06:48:46.583Z,4.40
2018-12-29T06:51:15.458Z,4.40
2018-12-29T06:53:44.289Z,4.40
2018-12-29T06:56:13.177Z,4.40
2018-12-29T06:58:41.984Z,4.40
2018-12-29T07:01:10.913Z,4.40
2018-12-29T07:03:39.949Z,4.40
2018-12-29T07:06:09.279Z,4.40
2018-12-29T07:08:39.519Z,4.40
2018-12-29T07:11:09.442Z,4.40
2018-12-29T07:13:38.260Z,4.40
2018-12-29T07:16:07.075Z,4.40
2018-12-29T07:18:36.025Z,4.40
2018-12-29T07:21:04.851Z,4.40
2018-12-29T07:23:33.700Z,4.30
2018-12-29T07:26:02.518Z,4.30
2018-12-29T07:28:31.721Z,4.30
2018-12-29T07:31:00.611Z,4.40
2018-12-29T07:33:29.724Z,4.40
2018-12-29T07:35:58.529Z,4.40
2018-12-29T07:38:27.316Z,4.50
2018-12-29T07:40:56.503Z,4.50
2018-12-29T07:43:25.371Z,4.50
2018-12-29T07:45:54.438Z,4.50
2018-12-29T07:48:23.598Z,4.50
2018-12-29T07:50:52.736Z,4.50
2018-12-29T07:53:22.241Z,4.60
2018-12-29T07:55:51.551Z,4.60
2018-12-29T07:58:20.369Z,4.60
2018-12-29T08:00:49.924Z,4.60
2018-12-29T08:03:19.382Z,4.60
2018-12-29T08:05:48.188Z,4.60
2018-12-29T08:08:17.540Z,4.70
2018-12-29T08:10:46.467Z,4.70
2018-12-29T08:13:15.258Z,4.70
2018-12-29T08:15:44.141Z,4.70
2018-12-29T08:18:13.080Z,4.70
2018-12-29T08:20:42.419Z,4.80
2018-12-29T08:23:11.660Z,4.80
2018-12-29T08:25:40.844Z,4.90
2018-12-29T08:28:09.672Z,4.80
2018-12-29T08:30:38.684Z,4.90
2018-12-29T08:33:07.673Z,4.90
2018-12-29T08:35:36.477Z,4.90
2018-12-29T08:38:05.715Z,4.90
2018-12-29T08:40:34.547Z,5.00
2018-12-29T08:43:03.527Z,5.00
2018-12-29T08:45:32.889Z,5.00
2018-12-29T08:48:02.699Z,5.10
2018-12-29T08:50:31.532Z,5.10
2018-12-29T08:53:00.349Z,5.10
2018-12-29T08:55:30.063Z,5.10
2018-12-29T08:57:59.108Z,5.20
2018-12-29T09:00:28.122Z,5.20
2018-12-29T09:02:57.037Z,5.10
2018-12-29T09:05:26.192Z,5.20
2018-12-29T09:07:55.237Z,5.20
2018-12-29T09:10:24.214Z,5.10
2018-12-29T09:12:54.226Z,5.20
2018-12-29T09:15:28.952Z,5.20
2018-12-29T09:17:58.144Z,5.30
2018-12-29T09:20:27.003Z,5.30
2018-12-29T09:22:55.834Z,5.30
2018-12-29T09:25:25.186Z,5.30
2018-12-29T09:27:54.677Z,5.40
2018-12-29T09:30:23.641Z,5.40
2018-12-29T09:32:53.051Z,5.40
2018-12-29T09:35:21.880Z,5.40
2018-12-29T09:37:51.103Z,5.40
2018-12-29T09:40:19.904Z,5.50
2018-12-29T09:42:48.763Z,5.50
2018-12-29T09:45:18.114Z,5.50
2018-12-29T09:47:46.983Z,5.50
2018-12-29T09:50:15.867Z,5.60
2018-12-29T09:52:45.078Z,5.60
2018-12-29T09:55:13.943Z,5.60
2018-12-29T09:57:43.250Z,5.70
2018-12-29T10:00:12.403Z,5.60
2018-12-29T10:02:41.545Z,5.70
2018-12-29T10:05:10.378Z,5.70
2018-12-29T10:07:39.207Z,5.80
2018-12-29T10:10:08.224Z,5.80
2018-12-29T10:12:37.351Z,5.80
2018-12-29T10:15:07.692Z,5.90
2018-12-29T10:17:36.563Z,5.90
2018-12-29T10:20:05.639Z,5.90
2018-12-29T10:22:35.061Z,6.00
2018-12-29T10:25:03.955Z,6.00
2018-12-29T10:27:33.408Z,6.00
2018-12-29T10:30:02.367Z,6.00
2018-12-29T10:32:31.164Z,6.10
2018-12-29T10:35:00.166Z,6.10
2018-12-29T10:37:28.999Z,6.20
2018-12-29T10:39:58.207Z,6.10
2018-12-29T10:42:27.483Z,6.20
2018-12-29T10:44:56.293Z,6.30
2018-12-29T10:47:25.684Z,6.30
2018-12-29T10:49:54.472Z,6.40
2018-12-29T10:52:23.287Z,6.50
2018-12-29T10:54:52.142Z,6.50
2018-12-29T10:57:20.951Z,6.50
2018-12-29T10:59:49.767Z,6.50
2018-12-29T11:02:18.674Z,6.50
2018-12-29T11:04:47.468Z,6.60
2018-12-29T11:07:16.394Z,6.50
2018-12-29T11:09:45.627Z,6.50
2018-12-29T11:12:14.446Z,6.50
2018-12-29T11:14:43.482Z,6.50
2018-12-29T11:17:12.551Z,6.50
2018-12-29T11:19:41.956Z,6.50
2018-12-29T11:22:11.306Z,6.60
2018-12-29T11:24:40.124Z,6.60
2018-12-29T11:27:08.964Z,6.60
2018-12-29T11:29:37.756Z,6.70
2018-12-29T11:32:06.595Z,6.80
2018-12-29T11:34:35.874Z,6.90
2018-12-29T11:37:04.821Z,7.00
2018-12-29T11:39:34.371Z,7.00
2018-12-29T11:42:03.289Z,7.10
2018-12-29T11:44:32.103Z,7.20
2018-12-29T11:47:01.428Z,7.10
2018-12-29T11:49:30.470Z,7.20
2018-12-29T11:51:59.290Z,7.30
2018-12-29T11:54:28.130Z,7.20
2018-12-29T11:56:56.957Z,7.20
2018-12-29T11:59:26.025Z,7.30
2018-12-29T12:01:54.877Z,7.30
2018-12-29T12:04:24.404Z,7.30
2018-12-29T12:06:53.293Z,7.50
2018-12-29T12:09:22.423Z,7.60
2018-12-29T12:11:52.049Z,7.60
2018-12-29T12:14:21.553Z,7.50
2018-12-29T12:16:51.016Z,7.60
2018-12-29T12:19:20.207Z,7.60
2018-12-29T12:21:49.098Z,7.60
2018-12-29T12:24:17.976Z,7.70
2018-12-29T12:26:46.832Z,7.70
2018-12-29T12:29:15.740Z,7.70
2018-12-29T12:31:45.024Z,7.80
2018-12-29T12:34:14.048Z,7.80
2018-12-29T12:36:43.250Z,7.90
2018-12-29T12:39:12.241Z,7.90
2018-12-29T12:41:41.132Z,7.90
2018-12-29T12:44:10.377Z,7.90
2018-12-29T12:46:39.715Z,7.90
2018-12-29T12:49:08.899Z,7.90
2018-12-29T12:51:37.722Z,8.00
2018-12-29T12:54:06.891Z,8.00
2018-12-29T12:56:36.520Z,7.90
2018-12-29T12:59:06.032Z,8.00
2018-12-29T13:01:34.864Z,7.90
2018-12-29T13:04:04.197Z,8.00
2018-12-29T13:06:33.045Z,8.00
2018-12-29T13:09:02.175Z,8.10
2018-12-29T13:11:31.084Z,8.10
2018-12-29T13:14:00.278Z,8.10
2018-12-29T13:16:29.138Z,8.10
2018-12-29T13:18:57.968Z,8.10
2018-12-29T13:21:27.051Z,8.10
2018-12-29T13:23:55.885Z,8.20
2018-12-29T13:26:24.945Z,8.20
2018-12-29T13:28:53.831Z,8.20
2018-12-29T13:31:23.031Z,8.20
2018-12-29T13:33:51.919Z,8.30
2018-12-29T13:36:20.816Z,8.20
2018-12-29T13:38:49.912Z,8.20
2018-12-29T13:41:18.952Z,8.20
2018-12-29T13:43:47.832Z,8.20
2018-12-29T13:46:16.916Z,8.30
2018-12-29T13:48:46.041Z,8.20
2018-12-29T13:51:14.866Z,8.20
2018-12-29T13:53:43.986Z,8.20
2018-12-29T13:56:12.875Z,8.20
2018-12-29T13:58:42.078Z,8.20
2018-12-29T14:01:11.452Z,8.10
2018-12-29T14:03:40.335Z,8.20
2018-12-29T14:06:09.224Z,8.10
2018-12-29T14:08:38.043Z,8.20
2018-12-29T14:11:09.963Z,8.10
2018-12-29T14:13:38.843Z,8.10
2018-12-29T14:16:07.640Z,8.10
2018-12-29T14:18:37.063Z,8.10
2018-12-29T14:21:05.883Z,8.00
2018-12-29T14:23:34.770Z,8.10
2018-12-29T14:26:13.982Z,8.00
2018-12-29T14:28:42.800Z,8.00
2018-12-29T14:31:11.642Z,8.00
2018-12-29T14:33:40.513Z,8.00
2018-12-29T14:36:09.330Z,8.00
2018-12-29T14:38:38.470Z,8.00
2018-12-29T14:41:07.607Z,8.00
2018-12-29T14:43:36.892Z,8.00
2018-12-29T14:46:05.840Z,8.00
2018-12-29T14:48:36.082Z,8.00
2018-12-29T14:51:05.099Z,8.00
2018-12-29T14:53:33.992Z,8.00
2018-12-29T14:56:03.228Z,8.00
2018-12-29T14:58:32.300Z,8.10
2018-12-29T15:01:01.163Z,8.00
2018-12-29T15:03:30.035Z,8.00
2018-12-29T15:05:59.119Z,8.00
2018-12-29T15:08:27.951Z,8.10
2018-12-29T15:10:56.755Z,8.10
2018-12-29T15:13:25.972Z,8.00
2018-12-29T15:15:54.865Z,8.10
2018-12-29T15:18:24.068Z,8.10
2018-12-29T15:20:53.184Z,8.10
2018-12-29T15:23:21.995Z,8.20
2018-12-29T15:25:51.028Z,8.10
2018-12-29T15:28:19.893Z,8.20
2018-12-29T15:30:49.062Z,8.10
2018-12-29T15:33:17.887Z,8.10
2018-12-29T15:35:47.025Z,8.10
2018-12-29T15:38:15.945Z,8.10
2018-12-29T15:40:44.863Z,8.10
2018-12-29T15:43:13.814Z,8.10
2018-12-29T15:45:43.051Z,8.20
2018-12-29T15:48:12.447Z,8.20
2018-12-29T15:50:41.253Z,8.20
2018-12-29T15:53:10.081Z,8.20
2018-12-29T15:55:38.920Z,8.20
2018-12-29T15:58:07.992Z,8.20
2018-12-29T16:00:36.823Z,8.20
2018-12-29T16:03:06.157Z,8.30
2018-12-29T16:05:35.418Z,8.20
2018-12-29T16:08:04.276Z,8.20
2018-12-29T16:10:33.086Z,8.10
2018-12-29T16:13:01.991Z,8.10
2018-12-29T16:15:31.013Z,8.00
2018-12-29T16:18:00.199Z,7.90
2018-12-29T16:20:29.031Z,7.90
2018-12-29T16:22:58.486Z,7.90
2018-12-29T16:25:27.355Z,7.90
2018-12-29T16:27:56.345Z,7.90
2018-12-29T16:30:25.470Z,7.80
2018-12-29T16:32:54.496Z,7.80
2018-12-29T16:35:23.616Z,7.70
2018-12-29T16:37:52.582Z,7.70
2018-12-29T16:40:21.512Z,7.70
2018-12-29T16:42:50.795Z,7.60
2018-12-29T16:45:20.417Z,7.60
2018-12-29T16:47:49.670Z,7.60
2018-12-29T16:50:18.636Z,7.60
2018-12-29T16:52:47.543Z,7.50
2018-12-29T16:55:16.541Z,7.50
2018-12-29T16:57:45.347Z,7.40
2018-12-29T17:00:14.323Z,7.40
2018-12-29T17:02:43.409Z,7.40
2018-12-29T17:05:12.509Z,7.30
2018-12-29T17:07:41.339Z,7.40
2018-12-29T17:10:10.219Z,7.30
2018-12-29T17:12:39.127Z,7.30
2018-12-29T17:15:08.368Z,7.30
2018-12-29T17:17:37.196Z,7.30
2018-12-29T17:20:06.312Z,7.30
2018-12-29T17:22:36.191Z,7.30
2018-12-29T17:25:05.184Z,7.30
2018-12-29T17:27:34.128Z,7.30
2018-12-29T17:30:03.964Z,7.30
2018-12-29T17:32:32.828Z,7.30
2018-12-29T17:35:01.700Z,7.20
2018-12-29T17:37:30.579Z,7.20
2018-12-29T17:39:59.386Z,7.30
2018-12-29T17:42:28.528Z,7.20
2018-12-29T17:44:57.336Z,7.20
2018-12-29T17:47:26.253Z,7.20
2018-12-29T17:49:55.354Z,7.20
2018-12-29T17:52:24.182Z,7.20
2018-12-29T17:54:53.470Z,7.30
2018-12-29T17:57:22.270Z,7.30
2018-12-29T17:59:51.135Z,7.30
2018-12-29T18:02:20.029Z,7.40
2018-12-29T18:04:48.828Z,7.30
2018-12-29T18:07:17.679Z,7.40
2018-12-29T18:09:46.847Z,7.40
2018-12-29T18:12:15.898Z,7.40
2018-12-29T18:14:45.004Z,7.50
2018-12-29T18:17:14.159Z,7.50
2018-12-29T18:19:42.956Z,7.50
2018-12-29T18:22:12.195Z,7.40
2018-12-29T18:24:41.071Z,7.60
2018-12-29T18:27:09.991Z,7.60
2018-12-29T18:29:38.799Z,7.70
2018-12-29T18:32:08.388Z,7.70
2018-12-29T18:34:37.598Z,7.70
2018-12-29T18:37:06.683Z,7.70
2018-12-29T18:39:35.576Z,7.80
2018-12-29T18:42:04.770Z,7.80
2018-12-29T18:44:33.916Z,7.80
2018-12-29T18:47:03.068Z,7.80
2018-12-29T18:49:38.383Z,7.80
2018-12-29T18:52:02.696Z,7.90
2018-12-29T18:54:31.535Z,7.90
2018-12-29T18:57:00.422Z,7.90
2018-12-29T18:59:29.241Z,7.90
2018-12-29T19:01:58.512Z,7.90
2018-12-29T19:04:27.661Z,7.90
2018-12-29T19:06:56.560Z,7.90
2018-12-29T19:09:25.448Z,8.00
2018-12-29T19:11:54.532Z,8.00
2018-12-29T19:14:23.539Z,8.00
2018-12-29T19:16:52.719Z,8.00
2018-12-29T19:19:21.949Z,8.00
2018-12-29T19:21:51.274Z,8.00
2018-12-29T19:24:20.060Z,8.00
2018-12-29T19:26:48.918Z,8.00
2018-12-29T19:29:18.603Z,8.00
2018-12-29T19:31:47.494Z,8.10
2018-12-29T19:34:16.565Z,8.00
2018-12-29T19:36:45.486Z,8.10
2018-12-29T19:39:14.689Z,8.10
2018-12-29T19:41:48.055Z,8.00
2018-12-29T19:44:14.562Z,8.00
2018-12-29T19:46:43.682Z,8.10
2018-12-29T19:49:12.874Z,8.10
2018-12-29T19:51:41.789Z,8.10
2018-12-29T19:54:10.603Z,8.10
2018-12-29T19:56:39.836Z,8.10
2018-12-29T19:59:08.952Z,8.10
2018-12-29T20:01:37.868Z,8.10
2018-12-29T20:04:07.124Z,8.10
2018-12-29T20:06:35.971Z,8.20
2018-12-29T20:09:06.944Z,8.20
2018-12-29T20:11:35.730Z,8.20
2018-12-29T20:14:05.003Z,8.20
2018-12-29T20:16:33.782Z,8.20
2018-12-29T20:19:02.655Z,8.30
2018-12-29T20:21:31.502Z,8.20
2018-12-29T20:24:00.345Z,8.30
2018-12-29T20:26:29.443Z,8.30
2018-12-29T20:28:58.640Z,8.30
2018-12-29T20:31:27.432Z,8.30
2018-12-29T20:33:56.319Z,8.30
2018-12-29T20:36:25.172Z,8.40
2018-12-29T20:38:53.972Z,8.40
2018-12-29T20:41:22.795Z,8.40
2018-12-29T20:43:51.931Z,8.50
2018-12-29T20:46:20.997Z,8.50
2018-12-29T20:48:49.903Z,8.60
2018-12-29T20:51:18.808Z,8.60
2018-12-29T20:53:48.256Z,8.60
2018-12-29T20:56:17.152Z,8.70
2018-12-29T20:58:46.363Z,8.80
2018-12-29T21:01:15.771Z,8.80
2018-12-29T21:03:44.655Z,8.80
2018-12-29T21:06:13.752Z,8.90
2018-12-29T21:08:42.731Z,8.90
2018-12-29T21:11:11.742Z,8.90
2018-12-29T21:13:40.624Z,8.90
2018-12-29T21:16:09.953Z,8.90
2018-12-29T21:18:38.935Z,8.90
2018-12-29T21:21:08.024Z,9.00
2018-12-29T21:23:36.956Z,8.90
2018-12-29T21:26:05.854Z,8.90
2018-12-29T21:28:34.807Z,9.00
2018-12-29T21:31:03.671Z,9.00
2018-12-29T21:33:32.573Z,9.00
2018-12-29T21:36:01.489Z,9.00
2018-12-29T21:38:30.669Z,9.00
2018-12-29T21:40:59.956Z,9.00
2018-12-29T21:43:28.923Z,9.00
2018-12-29T21:45:58.093Z,8.90
2018-12-29T21:48:26.972Z,9.00
2018-12-29T21:50:55.796Z,9.00
2018-12-29T21:53:24.813Z,8.90
2018-12-29T21:55:53.912Z,8.90
2018-12-29T21:58:22.741Z,8.90
2018-12-29T22:00:51.924Z,8.90
2018-12-29T22:03:21.063Z,8.90
2018-12-29T22:05:49.920Z,8.90
2018-12-29T22:08:19.113Z,8.90
2018-12-29T22:10:47.903Z,8.90
2018-12-29T22:13:18.317Z,8.90
2018-12-29T22:15:47.232Z,8.90
2018-12-29T22:18:16.552Z,9.00
2018-12-29T22:20:45.384Z,9.00
2018-12-29T22:23:14.285Z,9.00
2018-12-29T22:25:48.204Z,9.00
2018-12-29T22:28:13.605Z,9.00
2018-12-29T22:30:42.475Z,8.90
2018-12-29T22:33:11.427Z,8.90
2018-12-29T22:35:40.410Z,8.80
2018-12-29T22:38:09.378Z,8.80
2018-12-29T22:40:38.429Z,8.80
2018-12-29T22:43:07.271Z,8.80
2018-12-29T22:45:36.069Z,8.90
2018-12-29T22:48:05.049Z,8.90
2018-12-29T22:50:40.849Z,9.00
2018-12-29T22:53:04.739Z,9.00
2018-12-29T22:55:33.987Z,9.00
2018-12-29T22:58:08.482Z,9.10
2018-12-29T23:00:44.158Z,9.10
2018-12-29T23:03:13.016Z,9.10
2018-12-29T23:05:41.916Z,9.10
2018-12-29T23:08:10.779Z,9.00
2018-12-29T23:10:39.567Z,9.00
2018-12-29T23:13:08.619Z,9.00
2018-12-29T23:15:37.427Z,9.00
2018-12-29T23:18:06.530Z,9.00
2018-12-29T23:20:36.022Z,9.00
2018-12-29T23:23:05.332Z,8.90
2018-12-29T23:25:34.181Z,8.90
2018-12-29T23:28:03.149Z,8.90
2018-12-29T23:30:31.959Z,8.90
2018-12-29T23:33:01.148Z,8.90
2018-12-29T23:35:30.724Z,8.80
2018-12-29T23:38:00.011Z,8.80
2018-12-29T23:40:28.969Z,8.80
2018-12-29T23:42:58.210Z,8.80
2018-12-29T23:45:27.420Z,8.80
2018-12-29T23:47:56.411Z,8.80
2018-12-29T23:50:25.315Z,8.80
2018-12-29T23:52:54.553Z,8.80
2018-12-29T23:55:24.188Z,8.80
2018-12-29T23:57:53.003Z,8.80
